createdAt,value
2022-09-23T00:00:20.774Z,20.25
2022-09-23T00:02:47.216Z,20.52
2022-09-23T00:05:13.614Z,21.69
2022-09-23T00:07:40.107Z,21.96
2022-09-23T00:10:06.439Z,20.85
2022-09-23T00:12:32.799Z,20.44
2022-09-23T00:14:59.168Z,20.42
2022-09-23T00:17:25.534Z,20.23
2022-09-23T00:19:51.869Z,20.09
2022-09-23T00:22:18.226Z,20.08
2022-09-23T00:24:44.590Z,20.16
2022-09-23T00:27:10.937Z,20.41
2022-09-23T00:29:37.430Z,20.36
2022-09-23T00:32:03.770Z,20.36
2022-09-23T00:34:30.116Z,20.54
2022-09-23T00:36:56.504Z,22.74
2022-09-23T00:39:22.855Z,21.29
2022-09-23T00:41:49.196Z,20.48
2022-09-23T00:44:15.695Z,20.12
2022-09-23T00:46:42.031Z,20.29
2022-09-23T00:49:08.371Z,20.08
2022-09-23T00:51:34.734Z,20.25
2022-09-23T00:54:01.120Z,20.23
2022-09-23T00:56:27.488Z,20.35
2022-09-23T00:58:53.886Z,20.44
2022-09-23T01:01:20.289Z,20.49
2022-09-23T01:03:46.684Z,20.74
2022-09-23T01:06:13.092Z,21.05
2022-09-23T01:08:39.433Z,22.41
2022-09-23T01:11:05.763Z,20.97
2022-09-23T01:13:33.130Z,20.42
2022-09-23T01:15:59.460Z,20.29
2022-09-23T01:18:25.787Z,20.29
2022-09-23T01:20:52.269Z,19.95
2022-09-23T01:23:18.616Z,20.32
2022-09-23T01:25:44.957Z,20.38
2022-09-23T01:28:11.333Z,20.48
2022-09-23T01:30:37.783Z,20.41
2022-09-23T01:33:04.180Z,20.40
2022-09-23T01:35:30.552Z,20.50
2022-09-23T01:37:56.918Z,22.29
2022-09-23T01:40:23.302Z,21.10
2022-09-23T01:42:49.791Z,20.36
2022-09-23T01:45:16.117Z,20.26
2022-09-23T01:47:42.452Z,20.07
2022-09-23T01:50:08.821Z,19.93
2022-09-23T01:52:35.182Z,20.40
2022-09-23T01:55:01.525Z,20.19
2022-09-23T01:57:27.953Z,20.41
2022-09-23T01:59:54.313Z,20.38
2022-09-23T02:02:20.725Z,20.32
2022-09-23T02:04:47.178Z,20.58
2022-09-23T02:07:13.525Z,21.15
2022-09-23T02:09:39.865Z,22.20
2022-09-23T02:12:06.209Z,21.15
2022-09-23T02:14:32.535Z,20.33
2022-09-23T02:16:58.920Z,20.07
2022-09-23T02:19:25.329Z,19.98
2022-09-23T02:21:51.658Z,20.48
2022-09-23T02:24:17.998Z,20.37
2022-09-23T02:26:44.458Z,20.15
2022-09-23T02:29:10.801Z,20.39
2022-09-23T02:31:37.176Z,20.21
2022-09-23T02:34:03.632Z,20.54
2022-09-23T02:36:29.982Z,20.20
2022-09-23T02:38:58.631Z,22.27
2022-09-23T02:41:24.999Z,21.54
2022-09-23T02:43:51.331Z,20.50
2022-09-23T02:46:17.733Z,20.35
2022-09-23T02:48:44.129Z,20.03
2022-09-23T02:51:10.469Z,19.96
2022-09-23T02:53:36.797Z,20.53
2022-09-23T02:56:03.152Z,20.17
2022-09-23T02:58:29.525Z,20.57
2022-09-23T03:00:55.937Z,20.26
2022-09-23T03:03:22.368Z,20.53
2022-09-23T03:05:48.708Z,20.41
2022-09-23T03:08:15.060Z,21.90
2022-09-23T03:10:41.487Z,21.85
2022-09-23T03:13:07.822Z,21.13
2022-09-23T03:15:34.186Z,20.70
2022-09-23T03:18:00.559Z,20.36
2022-09-23T03:20:26.913Z,19.97
2022-09-23T03:22:53.293Z,20.39
2022-09-23T03:25:19.654Z,20.35
2022-09-23T03:27:45.978Z,20.20
2022-09-23T03:30:12.330Z,20.21
2022-09-23T03:32:38.709Z,20.27
2022-09-23T03:35:05.043Z,20.64
2022-09-23T03:37:31.424Z,20.44
2022-09-23T03:39:57.781Z,22.73
2022-09-23T03:42:24.132Z,21.56
2022-09-23T03:44:50.459Z,20.86
2022-09-23T03:47:16.817Z,20.41
2022-09-23T03:49:43.172Z,20.49
2022-09-23T03:52:09.509Z,20.15
2022-09-23T03:54:35.881Z,20.53
2022-09-23T03:57:02.215Z,20.33
2022-09-23T03:59:28.545Z,20.54
2022-09-23T04:01:54.950Z,20.25
2022-09-23T04:04:21.386Z,20.48
2022-09-23T04:06:47.744Z,20.49
2022-09-23T04:09:14.102Z,22.39
2022-09-23T04:11:40.462Z,21.63
2022-09-23T04:14:06.802Z,20.97
2022-09-23T04:16:33.253Z,20.66
2022-09-23T04:18:59.770Z,20.42
2022-09-23T04:21:26.138Z,20.54
2022-09-23T04:23:52.486Z,20.57
2022-09-23T04:26:18.828Z,20.79
2022-09-23T04:28:45.175Z,20.88
2022-09-23T04:31:11.690Z,20.55
2022-09-23T04:33:38.144Z,20.86
2022-09-23T04:36:04.496Z,20.77
2022-09-23T04:38:30.882Z,22.64
2022-09-23T04:40:57.223Z,22.16
2022-09-23T04:43:23.594Z,21.38
2022-09-23T04:45:50.086Z,20.72
2022-09-23T04:48:16.418Z,20.66
2022-09-23T04:50:42.747Z,20.80
2022-09-23T04:53:09.151Z,21.02
2022-09-23T04:55:35.546Z,20.93
2022-09-23T04:58:01.886Z,20.75
2022-09-23T05:00:28.452Z,21.23
2022-09-23T05:02:54.873Z,21.19
2022-09-23T05:05:21.237Z,21.55
2022-09-23T05:07:47.597Z,23.23
2022-09-23T05:10:13.975Z,21.73
2022-09-23T05:12:40.326Z,21.03
2022-09-23T05:15:06.686Z,20.73
2022-09-23T05:17:33.021Z,20.89
2022-09-23T05:19:59.424Z,20.67
2022-09-23T05:22:25.809Z,20.90
2022-09-23T05:24:52.144Z,21.09
2022-09-23T05:27:18.592Z,21.24
2022-09-23T05:29:45.095Z,21.19
2022-09-23T05:32:11.477Z,21.13
2022-09-23T05:34:37.832Z,23.18
2022-09-23T05:37:04.322Z,22.17
2022-09-23T05:39:30.661Z,21.44
2022-09-23T05:41:57.005Z,21.35
2022-09-23T05:44:23.382Z,20.96
2022-09-23T05:46:49.772Z,21.11
2022-09-23T05:49:16.149Z,21.08
2022-09-23T05:51:42.665Z,21.15
2022-09-23T05:54:09.027Z,21.49
2022-09-23T05:56:35.386Z,21.59
2022-09-23T05:59:03.355Z,22.07
2022-09-23T06:01:29.892Z,22.63
2022-09-23T06:03:56.287Z,23.89
2022-09-23T06:06:22.762Z,22.77
2022-09-23T06:08:49.146Z,22.26
2022-09-23T06:11:15.501Z,22.14
2022-09-23T06:13:41.897Z,22.02
2022-09-23T06:16:08.297Z,22.35
2022-09-23T06:18:34.728Z,22.58
2022-09-23T06:21:01.273Z,22.60
2022-09-23T06:23:27.635Z,22.98
2022-09-23T06:25:53.998Z,23.05
2022-09-23T06:28:20.362Z,24.05
2022-09-23T06:30:46.742Z,24.60
2022-09-23T06:33:13.103Z,23.27
2022-09-23T06:35:39.606Z,23.13
2022-09-23T06:38:06.140Z,23.11
2022-09-23T06:40:32.606Z,23.10
2022-09-23T06:42:59.178Z,23.30
2022-09-23T06:45:25.525Z,23.41
2022-09-23T06:47:51.927Z,23.52
2022-09-23T06:50:18.435Z,23.68
2022-09-23T06:52:44.803Z,24.38
2022-09-23T06:55:11.155Z,25.63
2022-09-23T06:57:37.537Z,24.34
2022-09-23T07:00:04.027Z,23.89
2022-09-23T07:02:30.452Z,23.62
2022-09-23T07:04:57.024Z,23.91
2022-09-23T07:07:23.395Z,23.84
2022-09-23T07:09:49.873Z,24.35
2022-09-23T07:12:16.267Z,24.30
2022-09-23T07:14:42.617Z,24.29
2022-09-23T07:17:08.982Z,24.94
2022-09-23T07:19:35.489Z,26.42
2022-09-23T07:22:01.966Z,24.91
2022-09-23T07:24:28.319Z,24.25
2022-09-23T07:26:54.719Z,24.10
2022-09-23T07:29:21.073Z,24.04
2022-09-23T07:31:47.445Z,24.21
2022-09-23T07:34:13.899Z,24.16
2022-09-23T07:36:40.250Z,24.09
2022-09-23T07:39:06.642Z,24.22
2022-09-23T07:41:33.059Z,24.69
2022-09-23T07:43:59.439Z,25.95
2022-09-23T07:46:25.908Z,24.65
2022-09-23T07:48:52.311Z,23.83
2022-09-23T07:51:18.682Z,23.62
2022-09-23T07:53:45.060Z,23.88
2022-09-23T07:56:11.446Z,23.72
2022-09-23T07:58:37.844Z,23.95
2022-09-23T08:01:04.292Z,24.04
2022-09-23T08:03:30.902Z,23.94
2022-09-23T08:05:57.260Z,24.27
2022-09-23T08:08:23.614Z,26.38
2022-09-23T08:10:49.991Z,24.58
2022-09-23T08:13:16.338Z,24.07
2022-09-23T08:15:42.690Z,23.78
2022-09-23T08:18:09.152Z,24.20
2022-09-23T08:20:35.509Z,24.03
2022-09-23T08:23:01.861Z,24.24
2022-09-23T08:25:29.162Z,24.26
2022-09-23T08:27:56.896Z,24.31
2022-09-23T08:30:23.286Z,24.40
2022-09-23T08:32:49.694Z,26.14
2022-09-23T08:35:16.044Z,25.00
2022-09-23T08:37:42.386Z,24.33
2022-09-23T08:40:08.856Z,24.31
2022-09-23T08:42:35.241Z,24.21
2022-09-23T08:45:01.601Z,24.30
2022-09-23T08:47:28.103Z,23.97
2022-09-23T08:49:54.447Z,24.09
2022-09-23T08:52:20.819Z,24.09
2022-09-23T08:54:49.852Z,24.23
2022-09-23T08:57:18.302Z,26.09
2022-09-23T08:59:44.710Z,24.86
2022-09-23T09:02:11.133Z,23.84
2022-09-23T09:04:37.479Z,23.37
2022-09-23T09:07:31.776Z,23.17
2022-09-23T09:09:50.194Z,23.30
2022-09-23T09:12:16.547Z,23.59
2022-09-23T09:14:42.945Z,23.23
2022-09-23T09:17:09.392Z,23.65
2022-09-23T09:19:35.764Z,23.93
2022-09-23T09:22:02.197Z,25.00
2022-09-23T09:24:28.588Z,25.04
2022-09-23T09:26:54.968Z,23.55
2022-09-23T09:29:34.993Z,23.12
2022-09-23T09:32:02.142Z,23.04
2022-09-23T09:34:28.505Z,23.11
2022-09-23T09:36:54.861Z,23.09
2022-09-23T09:39:25.968Z,22.98
2022-09-23T09:41:52.605Z,23.22
2022-09-23T09:44:18.973Z,23.30
2022-09-23T09:46:45.490Z,23.54
2022-09-23T09:49:11.941Z,25.02
2022-09-23T09:51:38.308Z,23.66
2022-09-23T09:54:04.758Z,22.81
2022-09-23T09:56:31.174Z,22.92
2022-09-23T09:58:57.522Z,22.80
2022-09-23T10:01:24.052Z,22.96
2022-09-23T10:03:53.039Z,23.08
2022-09-23T10:06:23.416Z,23.42
2022-09-23T10:08:49.825Z,23.18
2022-09-23T10:11:16.162Z,23.39
2022-09-23T10:13:42.502Z,24.93
2022-09-23T10:16:08.965Z,24.48
2022-09-23T10:18:35.336Z,23.10
2022-09-23T10:21:01.695Z,22.82
2022-09-23T10:23:28.167Z,22.81
2022-09-23T10:25:54.524Z,22.72
2022-09-23T10:28:20.878Z,23.00
2022-09-23T10:30:47.336Z,23.04
2022-09-23T10:33:13.762Z,23.09
2022-09-23T10:35:40.165Z,23.01
2022-09-23T10:38:06.530Z,23.05
2022-09-23T10:40:32.971Z,24.48
2022-09-23T10:42:59.721Z,23.55
2022-09-23T10:45:26.250Z,22.47
2022-09-23T10:47:52.588Z,22.65
2022-09-23T10:50:18.986Z,22.45
2022-09-23T10:52:45.368Z,22.37
2022-09-23T10:55:11.802Z,22.84
2022-09-23T10:57:38.192Z,22.66
2022-09-23T11:00:04.579Z,23.06
2022-09-23T11:02:30.930Z,23.14
2022-09-23T11:04:57.440Z,23.12
2022-09-23T11:07:23.870Z,24.36
2022-09-23T11:09:50.217Z,23.51
2022-09-23T11:12:16.568Z,22.85
2022-09-23T11:14:43.089Z,22.64
2022-09-23T11:17:09.522Z,23.05
2022-09-23T11:19:35.925Z,22.78
2022-09-23T11:22:02.388Z,22.62
2022-09-23T11:24:28.737Z,22.69
2022-09-23T11:26:55.116Z,22.92
2022-09-23T11:29:22.014Z,22.82
2022-09-23T11:31:48.398Z,23.85
2022-09-23T11:34:14.735Z,24.22
2022-09-23T11:36:41.249Z,23.01
2022-09-23T11:39:07.628Z,22.91
2022-09-23T11:41:33.993Z,22.75
2022-09-23T11:44:00.407Z,22.87
2022-09-23T11:46:26.828Z,22.70
2022-09-23T11:48:53.207Z,22.92
2022-09-23T11:51:19.598Z,22.88
2022-09-23T11:53:45.994Z,22.95
2022-09-23T11:56:12.672Z,22.73
2022-09-23T12:01:06.659Z,23.60
2022-09-23T12:03:43.011Z,23.14
2022-09-23T12:06:11.082Z,23.08
2022-09-23T12:08:37.470Z,22.70
2022-09-23T12:11:03.825Z,22.68
2022-09-23T12:13:30.264Z,22.91
2022-09-23T12:15:56.606Z,22.98
2022-09-23T12:18:23.401Z,23.16
2022-09-23T12:20:49.987Z,23.04
2022-09-23T12:23:16.346Z,23.13
2022-09-23T12:25:42.680Z,24.84
2022-09-23T12:28:09.242Z,23.80
2022-09-23T12:30:35.650Z,23.00
2022-09-23T12:33:02.050Z,22.88
2022-09-23T12:35:28.464Z,22.81
2022-09-23T12:37:54.813Z,22.66
2022-09-23T12:40:21.254Z,22.79
2022-09-23T12:42:47.692Z,23.07
2022-09-23T12:45:14.049Z,23.07
2022-09-23T12:47:40.424Z,23.16
2022-09-23T12:50:06.946Z,23.11
2022-09-23T12:52:33.367Z,24.79
2022-09-23T12:54:59.699Z,23.76
2022-09-23T12:57:26.191Z,23.31
2022-09-23T12:59:52.545Z,22.93
2022-09-23T13:02:19.017Z,22.97
2022-09-23T13:04:45.463Z,23.18
2022-09-23T13:07:11.868Z,22.97
2022-09-23T13:09:38.203Z,23.43
2022-09-23T13:12:04.747Z,23.32
2022-09-23T13:14:31.092Z,23.37
2022-09-23T13:16:57.504Z,24.31
2022-09-23T13:19:24.161Z,24.99
2022-09-23T13:21:50.523Z,23.61
2022-09-23T13:24:16.882Z,23.36
2022-09-23T13:26:43.420Z,23.07
2022-09-23T13:29:12.546Z,22.97
2022-09-23T13:31:38.987Z,23.16
2022-09-23T13:34:05.380Z,23.29
2022-09-23T13:36:31.777Z,23.11
2022-09-23T13:39:00.464Z,23.13
2022-09-23T13:41:26.949Z,23.36
2022-09-23T13:43:53.291Z,25.09
2022-09-23T13:46:19.705Z,24.46
2022-09-23T13:48:46.254Z,23.80
2022-09-23T13:51:12.608Z,23.29
2022-09-23T13:53:38.964Z,23.32
2022-09-23T13:56:05.386Z,23.53
2022-09-23T13:58:31.787Z,23.61
2022-09-23T14:00:58.188Z,23.52
2022-09-23T14:03:24.619Z,23.31
2022-09-23T14:05:50.959Z,23.62
2022-09-23T14:08:17.361Z,23.75
2022-09-23T14:10:43.727Z,25.51
2022-09-23T14:13:10.103Z,24.79
2022-09-23T14:15:39.430Z,24.06
2022-09-23T14:18:05.992Z,23.55
2022-09-23T14:20:32.379Z,23.55
2022-09-23T14:22:58.729Z,23.58
2022-09-23T14:25:25.109Z,23.41
2022-09-23T14:27:51.461Z,23.66
2022-09-23T14:30:17.841Z,23.55
2022-09-23T14:32:44.213Z,23.62
2022-09-23T14:35:10.574Z,23.90
2022-09-23T14:37:36.956Z,25.55
2022-09-23T14:40:03.468Z,24.50
2022-09-23T14:42:29.884Z,23.75
2022-09-23T14:44:56.328Z,23.68
2022-09-23T14:47:22.712Z,23.67
2022-09-23T14:49:49.066Z,23.55
2022-09-23T14:52:15.493Z,23.55
2022-09-23T14:54:41.882Z,23.66
2022-09-23T14:57:09.597Z,23.74
2022-09-23T14:59:35.974Z,23.88
2022-09-23T15:02:02.404Z,23.90
2022-09-23T15:04:28.785Z,25.50
2022-09-23T15:06:55.122Z,24.54
2022-09-23T15:09:21.582Z,23.72
2022-09-23T15:11:47.953Z,23.41
2022-09-23T15:14:36.599Z,23.49
2022-09-23T15:17:00.780Z,23.75
2022-09-23T15:19:29.207Z,23.64
2022-09-23T15:21:55.588Z,23.51
2022-09-23T15:24:22.064Z,23.67
2022-09-23T15:26:48.403Z,23.56
2022-09-23T15:29:14.775Z,24.51
2022-09-23T15:31:41.218Z,25.47
2022-09-23T15:34:07.637Z,24.22
2022-09-23T15:36:34.035Z,23.76
2022-09-23T15:39:00.594Z,23.77
2022-09-23T15:41:26.955Z,23.71
2022-09-23T15:43:53.299Z,23.83
2022-09-23T15:46:20.004Z,23.72
2022-09-23T15:48:46.708Z,23.82
2022-09-23T15:51:13.096Z,23.79
2022-09-23T15:53:39.492Z,23.73
2022-09-23T15:56:05.865Z,25.33
2022-09-23T15:58:32.238Z,25.62
2022-09-23T16:00:58.756Z,24.37
2022-09-23T16:03:25.134Z,23.72
2022-09-23T16:05:51.519Z,23.77
2022-09-23T16:08:17.935Z,23.86
2022-09-23T16:10:44.289Z,23.81
2022-09-23T16:13:10.653Z,23.94
2022-09-23T16:15:37.024Z,23.89
2022-09-23T16:18:03.383Z,24.29
2022-09-23T16:20:29.830Z,24.34
2022-09-23T16:22:56.243Z,26.14
2022-09-23T16:25:22.605Z,25.63
2022-09-23T16:27:48.969Z,24.56
2022-09-23T16:30:15.365Z,23.68
2022-09-23T16:32:41.721Z,23.58
2022-09-23T16:35:08.102Z,23.49
2022-09-23T16:37:35.183Z,23.68
2022-09-23T16:40:01.763Z,23.48
2022-09-23T16:42:28.215Z,23.66
2022-09-23T16:44:54.586Z,23.95
2022-09-23T16:47:20.944Z,23.42
2022-09-23T16:49:47.313Z,25.73
2022-09-23T16:52:13.816Z,24.87
2022-09-23T16:54:40.171Z,24.09
2022-09-23T16:57:06.560Z,23.82
2022-09-23T16:59:32.955Z,24.01
2022-09-23T17:01:59.359Z,24.11
2022-09-23T17:04:25.775Z,24.15
2022-09-23T17:06:52.162Z,24.39
2022-09-23T17:09:18.620Z,24.38
2022-09-23T17:11:44.953Z,24.31
2022-09-23T17:14:11.423Z,24.15
2022-09-23T17:16:37.832Z,26.31
2022-09-23T17:19:04.329Z,25.23
2022-09-23T17:21:30.735Z,24.59
2022-09-23T17:23:57.102Z,24.28
2022-09-23T17:26:23.471Z,23.82
2022-09-23T17:28:49.837Z,24.09
2022-09-23T17:31:16.273Z,24.17
2022-09-23T17:33:42.725Z,23.99
2022-09-23T17:36:09.159Z,24.04
2022-09-23T17:38:35.543Z,23.92
2022-09-23T17:41:01.889Z,24.40
2022-09-23T17:43:28.276Z,25.12
2022-09-23T17:45:54.709Z,26.28
2022-09-23T17:48:21.122Z,24.92
2022-09-23T17:50:47.501Z,24.26
2022-09-23T17:53:13.849Z,24.36
2022-09-23T17:55:40.192Z,24.28
2022-09-23T17:58:06.648Z,24.11
2022-09-23T18:00:33.045Z,24.35
2022-09-23T18:02:59.382Z,23.96
2022-09-23T18:05:25.738Z,23.82
2022-09-23T18:07:52.111Z,23.98
2022-09-23T18:10:18.511Z,23.84
2022-09-23T18:12:44.884Z,24.40
2022-09-23T18:15:11.247Z,25.31
2022-09-23T18:17:37.629Z,23.96
2022-09-23T18:20:04.108Z,23.57
2022-09-23T18:22:30.465Z,23.30
2022-09-23T18:24:56.913Z,23.41
2022-09-23T18:27:23.384Z,23.03
2022-09-23T18:29:49.737Z,23.15
2022-09-23T18:32:16.125Z,23.13
2022-09-23T18:34:42.558Z,23.12
2022-09-23T18:37:15.824Z,23.36
2022-09-23T18:39:42.792Z,23.35
2022-09-23T18:42:09.129Z,24.72
2022-09-23T18:44:35.463Z,24.95
2022-09-23T18:47:01.877Z,23.64
2022-09-23T18:49:28.231Z,23.43
2022-09-23T18:51:54.575Z,22.87
2022-09-23T18:54:20.936Z,23.21
2022-09-23T18:56:47.272Z,22.86
2022-09-23T18:59:13.645Z,23.14
2022-09-23T19:01:40.334Z,22.97
2022-09-23T19:04:06.890Z,23.47
2022-09-23T19:06:33.307Z,23.10
2022-09-23T19:08:59.722Z,23.32
2022-09-23T19:11:26.080Z,23.46
2022-09-23T19:13:52.425Z,25.38
2022-09-23T19:16:18.871Z,23.95
2022-09-23T19:18:45.208Z,23.58
2022-09-23T19:21:11.537Z,23.31
2022-09-23T19:23:37.941Z,23.02
2022-09-23T19:26:04.286Z,22.79
2022-09-23T19:28:30.662Z,23.23
2022-09-23T19:30:57.132Z,23.04
2022-09-23T19:33:23.481Z,22.96
2022-09-23T19:35:49.833Z,23.11
2022-09-23T19:38:16.192Z,23.02
2022-09-23T19:40:45.496Z,22.92
2022-09-23T19:43:15.453Z,24.85
2022-09-23T19:45:41.949Z,24.38
2022-09-23T19:48:08.285Z,23.17
2022-09-23T19:50:34.627Z,22.62
2022-09-23T19:53:01.013Z,22.86
2022-09-23T19:55:27.369Z,22.63
2022-09-23T19:57:53.740Z,22.70
2022-09-23T20:00:20.118Z,22.98
2022-09-23T20:02:46.446Z,22.62
2022-09-23T20:05:13.310Z,23.13
2022-09-23T20:07:40.984Z,23.22
2022-09-23T20:10:07.321Z,23.02
2022-09-23T20:12:33.686Z,22.56
2022-09-23T20:15:00.146Z,24.79
2022-09-23T20:17:26.482Z,23.87
2022-09-23T20:19:52.821Z,23.08
2022-09-23T20:22:19.333Z,22.96
2022-09-23T20:24:45.671Z,22.65
2022-09-23T20:27:12.027Z,22.89
2022-09-23T20:29:38.388Z,22.52
2022-09-23T20:32:04.728Z,22.69
2022-09-23T20:34:31.085Z,22.62
2022-09-23T20:36:57.530Z,22.88
2022-09-23T20:39:23.967Z,23.13
2022-09-23T20:41:50.316Z,22.69
2022-09-23T20:44:16.690Z,22.85
2022-09-23T20:46:47.848Z,24.76
2022-09-23T20:49:15.115Z,23.77
2022-09-23T20:51:41.489Z,22.63
2022-09-23T20:54:07.911Z,22.41
2022-09-23T20:56:34.284Z,22.61
2022-09-23T20:59:01.258Z,22.61
2022-09-23T21:01:27.599Z,22.65
2022-09-23T21:03:53.946Z,22.77
2022-09-23T21:06:20.396Z,22.71
2022-09-23T21:08:46.738Z,22.69
2022-09-23T21:11:13.087Z,23.03
2022-09-23T21:13:39.452Z,22.61
2022-09-23T21:16:05.866Z,22.84
2022-09-23T21:18:32.237Z,24.40
2022-09-23T21:20:58.630Z,23.18
2022-09-23T21:23:24.995Z,22.57
2022-09-23T21:25:51.333Z,22.65
2022-09-23T21:28:17.704Z,22.54
2022-09-23T21:30:46.373Z,22.59
2022-09-23T21:33:14.887Z,22.75
2022-09-23T21:35:41.283Z,22.81
2022-09-23T21:38:07.645Z,22.84
2022-09-23T21:40:34.051Z,22.82
2022-09-23T21:43:00.437Z,22.84
2022-09-23T21:45:26.792Z,22.83
2022-09-23T21:47:53.152Z,23.07
2022-09-23T21:50:19.503Z,24.29
2022-09-23T21:52:45.840Z,22.94
2022-09-23T21:55:12.185Z,22.55
2022-09-23T21:57:38.541Z,22.32
2022-09-23T22:00:04.884Z,22.44
2022-09-23T22:02:31.234Z,22.50
2022-09-23T22:04:57.602Z,22.26
2022-09-23T22:07:23.950Z,22.55
2022-09-23T22:09:50.301Z,22.66
2022-09-23T22:12:16.776Z,22.59
2022-09-23T22:14:43.125Z,22.65
2022-09-23T22:17:09.477Z,22.53
2022-09-23T22:19:35.952Z,22.81
2022-09-23T22:22:02.294Z,24.64
2022-09-23T22:24:28.659Z,23.75
2022-09-23T22:26:55.078Z,22.99
2022-09-23T22:29:21.427Z,22.47
2022-09-23T22:31:47.852Z,22.33
2022-09-23T22:34:37.585Z,22.20
2022-09-23T22:37:00.609Z,22.26
2022-09-23T22:39:26.983Z,22.69
2022-09-23T22:41:53.348Z,22.78
2022-09-23T22:44:19.687Z,22.67
2022-09-23T22:46:46.085Z,22.46
2022-09-23T22:49:14.761Z,22.60
2022-09-23T22:51:41.120Z,22.45
2022-09-23T22:54:07.485Z,24.65
2022-09-23T22:56:33.841Z,23.57
2022-09-23T22:59:00.197Z,22.73
2022-09-23T23:01:26.629Z,22.25
2022-09-23T23:03:53.152Z,22.20
2022-09-23T23:06:19.524Z,22.44
2022-09-23T23:08:45.942Z,22.49
2022-09-23T23:11:12.291Z,22.66
2022-09-23T23:13:38.628Z,22.46
2022-09-23T23:16:05.044Z,22.65
2022-09-23T23:18:31.445Z,22.35
2022-09-23T23:20:57.786Z,22.51
2022-09-23T23:23:24.153Z,22.56
2022-09-23T23:25:50.514Z,22.86
2022-09-23T23:28:16.856Z,24.09
2022-09-23T23:30:43.255Z,23.77
2022-09-23T23:33:09.607Z,22.86
2022-09-23T23:35:35.952Z,22.33
2022-09-23T23:38:02.396Z,22.34
2022-09-23T23:40:28.801Z,22.34
2022-09-23T23:42:55.169Z,22.36
2022-09-23T23:45:21.594Z,22.43
2022-09-23T23:47:47.949Z,22.26
2022-09-23T23:50:14.330Z,22.30
2022-09-23T23:52:40.702Z,22.42
2022-09-23T23:55:07.043Z,22.87
2022-09-23T23:57:33.382Z,22.86
2022-09-23T23:59:59.761Z,22.83
